createdAt,value
2022-12-23T00:00:00.559Z,100316.78
2022-12-23T00:00:31.944Z,100318.34
2022-12-23T00:01:05.901Z,100313.69
2022-12-23T00:01:37.327Z,100314.06
2022-12-23T00:02:08.898Z,100318.72
2022-12-23T00:02:40.578Z,100318.72
2022-12-23T00:03:12.241Z,100320.66
2022-12-23T00:03:44.161Z,100318.72
2022-12-23T00:04:15.542Z,100318.31
2022-12-23T00:04:46.988Z,100322.22
2022-12-23T00:05:18.543Z,100320.66
2022-12-23T00:05:50.068Z,100319.88
2022-12-23T00:06:21.506Z,100315.59
2022-12-23T00:06:52.842Z,100317.94
2022-12-23T00:07:24.240Z,100313.66
2022-12-23T00:07:55.859Z,100315.22
2022-12-23T00:08:27.442Z,100322.59
2022-12-23T00:08:59.751Z,100318.31
2022-12-23T00:09:31.069Z,100321.03
2022-12-23T00:10:02.806Z,100311.31
2022-12-23T00:10:35.149Z,100320.66
2022-12-23T00:11:11.691Z,100313.28
2022-12-23T00:12:02.972Z,100312.88
2022-12-23T00:12:52.685Z,100317.94
2022-12-23T00:13:42.816Z,100319.88
2022-12-23T00:14:32.577Z,100323.38
2022-12-23T00:15:07.333Z,100323.75
2022-12-23T00:15:38.699Z,100333.47
2022-12-23T00:16:12.625Z,100328.03
2022-12-23T00:16:44.095Z,100328.03
2022-12-23T00:17:22.721Z,100330.75
2022-12-23T00:17:54.727Z,100326.47
2022-12-23T00:18:26.577Z,100337.75
2022-12-23T00:18:57.905Z,100339.69
2022-12-23T00:19:29.230Z,100336.97
2022-12-23T00:20:00.807Z,100341.63
2022-12-23T00:20:34.121Z,100338.91
2022-12-23T00:21:09.416Z,100340.06
2022-12-23T00:21:40.881Z,100342.78
2022-12-23T00:22:12.189Z,100340.44
2022-12-23T00:23:02.210Z,100343.94
2022-12-23T00:23:34.618Z,100350.16
2022-12-23T00:24:06.270Z,100351.34
2022-12-23T00:24:37.598Z,100342.00
2022-12-23T00:25:10.153Z,100342.00
2022-12-23T00:25:44.446Z,100344.72
2022-12-23T00:26:18.861Z,100347.44
2022-12-23T00:26:50.284Z,100345.09
2022-12-23T00:27:21.617Z,100346.66
2022-12-23T00:28:02.378Z,100349.38
2022-12-23T00:28:33.930Z,100347.44
2022-12-23T00:29:05.450Z,100350.16
2022-12-23T00:29:36.838Z,100352.88
2022-12-23T00:30:10.113Z,100352.88
2022-12-23T00:30:48.714Z,100353.66
2022-12-23T00:31:21.156Z,100348.59
2022-12-23T00:31:52.667Z,100349.38
2022-12-23T00:32:24.006Z,100350.16
2022-12-23T00:32:55.375Z,100353.66
2022-12-23T00:33:29.766Z,100353.28
2022-12-23T00:34:01.142Z,100352.50
2022-12-23T00:34:32.529Z,100347.84
2022-12-23T00:35:04.177Z,100348.63
2022-12-23T00:35:35.559Z,100351.34
2022-12-23T00:36:40.686Z,100352.13
2022-12-23T00:37:12.091Z,100350.94
2022-12-23T00:37:43.491Z,100357.94
2022-12-23T00:38:15.621Z,100353.28
2022-12-23T00:39:05.811Z,100354.06
2022-12-23T00:39:59.877Z,100358.72
2022-12-23T00:40:52.399Z,100364.16
2022-12-23T00:41:42.458Z,100356.00
2022-12-23T00:42:32.608Z,100357.94
2022-12-23T00:43:04.039Z,100363.38
2022-12-23T00:43:35.429Z,100363.38
2022-12-23T00:44:06.885Z,100362.19
2022-12-23T00:44:38.410Z,100366.84
2022-12-23T00:45:15.870Z,100368.41
2022-12-23T00:45:47.538Z,100361.03
2022-12-23T00:46:19.061Z,100363.75
2022-12-23T00:46:50.710Z,100361.41
2022-12-23T00:47:40.764Z,100358.69
2022-12-23T00:48:31.007Z,100362.19
2022-12-23T00:49:21.176Z,100357.91
2022-12-23T00:49:52.555Z,100356.34
2022-12-23T00:50:23.947Z,100357.13
2022-12-23T00:50:55.300Z,100359.84
2022-12-23T00:51:26.684Z,100354.81
2022-12-23T00:51:59.068Z,100361.03
2022-12-23T00:52:30.593Z,100357.53
2022-12-23T00:53:02.155Z,100355.19
2022-12-23T00:53:33.493Z,100360.25
2022-12-23T00:54:05.818Z,100359.84
2022-12-23T00:54:37.463Z,100363.34
2022-12-23T00:55:09.016Z,100361.78
2022-12-23T00:55:40.386Z,100361.78
2022-12-23T00:56:11.784Z,100361.78
2022-12-23T00:56:43.161Z,100364.13
2022-12-23T00:57:14.501Z,100363.34
2022-12-23T00:57:45.855Z,100361.03
2022-12-23T00:58:18.718Z,100357.13
2022-12-23T00:58:50.135Z,100360.25
2022-12-23T00:59:21.583Z,100364.91
2022-12-23T00:59:53.020Z,100368.41
2022-12-23T01:00:44.537Z,100369.94
2022-12-23T01:01:34.667Z,100371.50
2022-12-23T01:02:24.579Z,100375.38
2022-12-23T01:03:14.698Z,100369.94
2022-12-23T01:04:04.624Z,100367.22
2022-12-23T01:04:54.816Z,100375.00
2022-12-23T01:05:38.247Z,100373.06
2022-12-23T01:06:09.685Z,100376.94
2022-12-23T01:06:41.181Z,100372.66
2022-12-23T01:07:12.589Z,100373.44
2022-12-23T01:07:43.983Z,100374.59
2022-12-23T01:08:15.327Z,100380.03
2022-12-23T01:08:46.715Z,100376.53
2022-12-23T01:09:18.034Z,100375.38
2022-12-23T01:09:49.412Z,100376.53
2022-12-23T01:10:20.824Z,100381.59
2022-12-23T01:10:52.377Z,100368.75
2022-12-23T01:11:23.719Z,100373.03
2022-12-23T01:11:55.116Z,100380.81
2022-12-23T01:12:26.647Z,100384.31
2022-12-23T01:12:58.087Z,100368.75
2022-12-23T01:13:29.459Z,100369.53
2022-12-23T01:14:00.861Z,100377.31
2022-12-23T01:14:32.726Z,100383.91
2022-12-23T01:15:04.495Z,100371.09
2022-12-23T01:15:35.875Z,100375.38
2022-12-23T01:16:16.747Z,100375.00
2022-12-23T01:16:49.204Z,100375.38
2022-12-23T01:17:20.747Z,100371.50
2022-12-23T01:17:52.306Z,100378.88
2022-12-23T01:18:23.718Z,100374.59
2022-12-23T01:18:55.142Z,100376.53
2022-12-23T01:19:27.283Z,100380.03
2022-12-23T01:19:58.675Z,100381.19
2022-12-23T01:20:30.130Z,100381.97
2022-12-23T01:21:06.819Z,100389.75
2022-12-23T01:21:38.357Z,100383.53
2022-12-23T01:22:09.841Z,100386.25
2022-12-23T01:22:41.294Z,100389.75
2022-12-23T01:23:12.685Z,100385.09
2022-12-23T01:23:44.109Z,100387.41
2022-12-23T01:24:15.647Z,100390.53
2022-12-23T01:24:46.978Z,100393.63
2022-12-23T01:25:18.361Z,100392.47
2022-12-23T01:25:57.346Z,100395.19
2022-12-23T01:26:28.858Z,100390.53
2022-12-23T01:27:00.488Z,100388.19
2022-12-23T01:27:31.891Z,100392.84
2022-12-23T01:28:03.359Z,100392.84
2022-12-23T01:28:36.235Z,100403.72
2022-12-23T01:29:07.734Z,100392.06
2022-12-23T01:29:39.157Z,100394.78
2022-12-23T01:30:10.847Z,100399.44
2022-12-23T01:30:42.225Z,100397.09
2022-12-23T01:31:13.821Z,100400.22
2022-12-23T01:31:45.331Z,100399.44
2022-12-23T01:32:16.776Z,100405.66
2022-12-23T01:32:48.274Z,100406.44
2022-12-23T01:33:20.209Z,100402.56
2022-12-23T01:33:52.576Z,100399.84
2022-12-23T01:34:24.156Z,100402.16
2022-12-23T01:34:55.619Z,100404.09
2022-12-23T01:35:27.015Z,100400.59
2022-12-23T01:36:02.978Z,100399.81
2022-12-23T01:36:34.328Z,100405.66
2022-12-23T01:37:06.823Z,100404.09
2022-12-23T01:37:38.180Z,100406.78
2022-12-23T01:38:09.534Z,100408.75
2022-12-23T01:38:40.889Z,100411.88
2022-12-23T01:39:12.365Z,100412.25
2022-12-23T01:39:43.884Z,100406.78
2022-12-23T01:40:15.270Z,100404.88
2022-12-23T01:40:46.606Z,100413.03
2022-12-23T01:41:45.064Z,100419.25
2022-12-23T01:42:37.231Z,100419.25
2022-12-23T01:43:16.755Z,100409.94
2022-12-23T01:43:50.973Z,100405.28
2022-12-23T01:45:01.388Z,100412.28
2022-12-23T01:45:33.539Z,100408.41
2022-12-23T01:46:04.947Z,100413.44
2022-12-23T01:46:36.489Z,100415.00
2022-12-23T01:47:15.060Z,100411.50
2022-12-23T01:47:49.173Z,100416.94
2022-12-23T01:48:25.512Z,100420.03
2022-12-23T01:48:57.305Z,100415.38
2022-12-23T01:49:28.686Z,100420.81
2022-12-23T01:50:12.161Z,100420.03
2022-12-23T01:50:56.120Z,100420.03
2022-12-23T01:51:30.128Z,100413.81
2022-12-23T01:52:01.939Z,100420.41
2022-12-23T01:52:38.463Z,100418.47
2022-12-23T01:53:14.929Z,100418.03
2022-12-23T01:53:51.531Z,100415.69
2022-12-23T01:54:22.889Z,100426.97
2022-12-23T01:54:55.718Z,100428.13
2022-12-23T01:55:31.257Z,100417.63
2022-12-23T01:56:05.307Z,100419.97
2022-12-23T01:56:39.931Z,100425.41
2022-12-23T01:57:12.156Z,100423.84
2022-12-23T01:57:44.865Z,100425.00
2022-12-23T01:58:33.158Z,100426.56
2022-12-23T01:59:32.343Z,100426.94
2022-12-23T02:00:22.726Z,100426.94
2022-12-23T02:01:15.689Z,100437.03
2022-12-23T02:02:05.787Z,100437.81
2022-12-23T02:02:58.556Z,100437.81
2022-12-23T02:03:45.309Z,100444.41
2022-12-23T02:04:19.474Z,100449.47
2022-12-23T02:04:51.390Z,100442.47
2022-12-23T02:05:23.780Z,100450.63
2022-12-23T02:06:17.060Z,100442.84
2022-12-23T02:07:08.588Z,100444.41
2022-12-23T02:07:59.167Z,100452.56
2022-12-23T02:08:49.129Z,100449.06
2022-12-23T02:09:24.007Z,100447.13
2022-12-23T02:09:56.002Z,100451.78
2022-12-23T02:10:50.493Z,100450.63
2022-12-23T02:11:53.611Z,100451.78
2022-12-23T02:12:39.932Z,100451.00
2022-12-23T02:13:23.019Z,100454.88
2022-12-23T02:14:21.911Z,100455.66
2022-12-23T02:15:25.908Z,100455.66
2022-12-23T02:16:18.241Z,100460.69
2022-12-23T02:17:00.000Z,100462.25
2022-12-23T02:17:40.412Z,100456.03
2022-12-23T02:19:55.675Z,100453.31
2022-12-23T02:20:36.673Z,100458.34
2022-12-23T02:21:19.355Z,100461.84
2022-12-23T02:22:39.218Z,100453.69
2022-12-23T02:24:03.805Z,100466.47
2022-12-23T02:25:04.155Z,100466.84
2022-12-23T02:25:57.042Z,100464.13
2022-12-23T02:26:40.279Z,100466.47
2022-12-23T02:27:22.407Z,100467.25
2022-12-23T02:27:56.511Z,100471.13
2022-12-23T02:28:42.911Z,100466.47
2022-12-23T02:29:43.339Z,100473.06
2022-12-23T02:30:20.647Z,100470.34
2022-12-23T02:30:58.955Z,100475.78
2022-12-23T02:31:47.866Z,100475.78
2022-12-23T02:32:42.493Z,100481.22
2022-12-23T02:33:34.574Z,100489.38
2022-12-23T02:34:20.996Z,100481.22
2022-12-23T02:35:20.009Z,100478.50
2022-12-23T02:36:06.965Z,100483.94
2022-12-23T02:36:49.647Z,100478.09
2022-12-23T02:37:35.375Z,100480.81
2022-12-23T02:38:14.352Z,100485.09
2022-12-23T02:38:49.654Z,100482.38
2022-12-23T02:39:40.303Z,100482.38
2022-12-23T02:40:15.989Z,100485.09
2022-12-23T02:41:07.101Z,100480.44
2022-12-23T02:41:50.720Z,100484.31
2022-12-23T02:42:28.686Z,100488.19
2022-12-23T02:43:22.949Z,100483.53
2022-12-23T02:44:02.458Z,100487.41
2022-12-23T02:44:43.504Z,100487.41
2022-12-23T02:45:32.142Z,100480.38
2022-12-23T02:46:13.262Z,100487.41
2022-12-23T02:46:54.344Z,100490.09
2022-12-23T02:47:35.154Z,100487.41
2022-12-23T02:48:14.289Z,100494.75
2022-12-23T02:49:05.018Z,100497.47
2022-12-23T02:49:43.442Z,100495.53
2022-12-23T02:50:23.540Z,100495.13
2022-12-23T02:50:57.455Z,100493.19
2022-12-23T02:51:38.020Z,100499.41
2022-12-23T02:52:15.361Z,100497.84
2022-12-23T02:52:49.770Z,100502.91
2022-12-23T02:53:29.280Z,100498.63
2022-12-23T02:54:06.223Z,100500.56
2022-12-23T02:54:44.478Z,100508.34
2022-12-23T02:55:21.514Z,100500.56
2022-12-23T02:55:55.960Z,100506.00
2022-12-23T02:56:32.167Z,100500.94
2022-12-23T02:57:07.361Z,100503.28
2022-12-23T02:57:44.755Z,100506.00
2022-12-23T02:58:20.798Z,100509.88
2022-12-23T02:59:24.166Z,100510.66
2022-12-23T02:59:57.629Z,100510.25
2022-12-23T03:00:30.407Z,100515.31
2022-12-23T03:01:03.533Z,100512.19
2022-12-23T03:01:36.091Z,100516.81
2022-12-23T03:02:07.911Z,100509.47
2022-12-23T03:02:41.699Z,100524.63
2022-12-23T03:03:13.393Z,100510.25
2022-12-23T03:03:47.501Z,100516.47
2022-12-23T03:04:18.966Z,100515.69
2022-12-23T03:04:50.489Z,100513.75
2022-12-23T03:05:32.598Z,100516.47
2022-12-23T03:06:17.430Z,100512.19
2022-12-23T03:06:54.489Z,100518.75
2022-12-23T03:07:38.394Z,100512.97
2022-12-23T03:08:25.301Z,100523.84
2022-12-23T03:08:59.602Z,100518.41
2022-12-23T03:09:44.880Z,100515.69
2022-12-23T03:10:38.725Z,100517.63
2022-12-23T03:11:17.195Z,100518.75
2022-12-23T03:12:11.102Z,100517.63
2022-12-23T03:12:59.455Z,100520.69
2022-12-23T03:13:37.034Z,100523.03
2022-12-23T03:14:34.138Z,100514.47
2022-12-23T03:15:23.878Z,100519.91
2022-12-23T03:16:00.912Z,100513.69
2022-12-23T03:17:00.306Z,100516.78
2022-12-23T03:17:45.582Z,100516.00
2022-12-23T03:18:29.403Z,100512.50
2022-12-23T03:19:06.560Z,100519.88
2022-12-23T03:19:46.952Z,100514.00
2022-12-23T03:20:21.238Z,100512.09
2022-12-23T03:21:01.729Z,100515.16
2022-12-23T03:21:54.460Z,100515.94
2022-12-23T03:22:36.228Z,100517.88
2022-12-23T03:23:26.452Z,100517.09
2022-12-23T03:24:21.131Z,100514.38
2022-12-23T03:25:03.439Z,100516.72
2022-12-23T03:25:49.004Z,100514.00
2022-12-23T03:26:39.919Z,100513.22
2022-12-23T03:27:25.540Z,100512.44
2022-12-23T03:28:17.610Z,100502.72
2022-12-23T03:29:03.465Z,100508.94
2022-12-23T03:29:49.548Z,100514.38
2022-12-23T03:30:23.310Z,100510.44
2022-12-23T03:30:58.591Z,100509.31
2022-12-23T03:31:33.249Z,100507.72
2022-12-23T03:32:05.822Z,100499.59
2022-12-23T03:33:07.761Z,100512.03
2022-12-23T03:33:42.476Z,100519.03
2022-12-23T03:34:22.092Z,100510.44
2022-12-23T03:34:58.290Z,100512.03
2022-12-23T03:35:40.897Z,100507.31
2022-12-23T03:36:29.135Z,100511.22
2022-12-23T03:37:05.053Z,100515.88
2022-12-23T03:37:39.710Z,100512.38
2022-12-23T03:38:14.328Z,100511.59
2022-12-23T03:38:47.137Z,100512.75
2022-12-23T03:39:22.549Z,100517.03
2022-12-23T03:40:25.448Z,100512.75
2022-12-23T03:41:04.641Z,100514.31
2022-12-23T03:41:44.742Z,100511.97
2022-12-23T03:42:30.417Z,100510.03
2022-12-23T03:43:07.933Z,100520.91
2022-12-23T03:43:51.253Z,100515.47
2022-12-23T03:45:10.652Z,100524.00
2022-12-23T03:45:51.784Z,100518.56
2022-12-23T03:46:32.881Z,100517.78
2022-12-23T03:47:11.267Z,100526.69
2022-12-23T03:47:48.478Z,100517.78
2022-12-23T03:48:36.762Z,100522.78
2022-12-23T03:49:24.153Z,100529.41
2022-12-23T03:50:00.467Z,100525.91
2022-12-23T03:50:32.640Z,100524.00
2022-12-23T03:51:15.485Z,100525.91
2022-12-23T03:51:59.300Z,100528.63
2022-12-23T03:52:36.642Z,100524.34
2022-12-23T03:53:15.935Z,100524.78
2022-12-23T03:53:54.540Z,100522.41
2022-12-23T03:54:31.082Z,100525.91
2022-12-23T03:55:06.575Z,100521.28
2022-12-23T03:55:44.315Z,100514.63
2022-12-23T03:56:41.144Z,100521.28
2022-12-23T03:57:14.026Z,100520.50
2022-12-23T03:57:52.341Z,100522.41
2022-12-23T03:58:39.301Z,100522.41
2022-12-23T03:59:30.883Z,100520.50
2022-12-23T04:00:02.371Z,100528.63
2022-12-23T04:00:39.056Z,100513.50
2022-12-23T04:01:11.058Z,100517.78
2022-12-23T04:02:03.639Z,100516.22
2022-12-23T04:02:55.999Z,100520.50
2022-12-23T04:03:37.102Z,100528.63
2022-12-23T04:04:20.940Z,100538.72
2022-12-23T04:05:05.862Z,100538.72
2022-12-23T04:05:40.476Z,100540.66
2022-12-23T04:06:15.779Z,100544.53
2022-12-23T04:06:54.832Z,100546.09
2022-12-23T04:07:39.367Z,100543.38
2022-12-23T04:08:26.009Z,100545.72
2022-12-23T04:08:58.069Z,100543.38
2022-12-23T04:09:29.733Z,100538.31
2022-12-23T04:10:01.192Z,100541.81
2022-12-23T04:10:32.993Z,100544.53
2022-12-23T04:11:05.693Z,100544.53
2022-12-23T04:11:37.477Z,100547.25
2022-12-23T04:12:09.322Z,100545.31
2022-12-23T04:12:41.117Z,100546.88
2022-12-23T04:13:12.607Z,100547.66
2022-12-23T04:13:44.067Z,100547.66
2022-12-23T04:14:19.482Z,100544.16
2022-12-23T04:14:51.604Z,100552.31
2022-12-23T04:15:25.933Z,100550.38
2022-12-23T04:15:59.060Z,100553.09
2022-12-23T04:16:30.741Z,100551.53
2022-12-23T04:17:02.844Z,100555.81
2022-12-23T04:17:34.321Z,100550.75
2022-12-23T04:18:05.717Z,100554.25
2022-12-23T04:18:37.133Z,100556.97
2022-12-23T04:19:08.585Z,100558.88
2022-12-23T04:19:39.989Z,100557.31
2022-12-23T04:20:11.527Z,100559.69
2022-12-23T04:20:42.917Z,100559.69
2022-12-23T04:21:14.518Z,100563.19
2022-12-23T04:21:45.934Z,100565.09
2022-12-23T04:22:17.478Z,100570.53
2022-12-23T04:22:49.016Z,100570.53
2022-12-23T04:23:20.448Z,100574.03
2022-12-23T04:23:51.785Z,100574.03
2022-12-23T04:24:23.241Z,100572.09
2022-12-23T04:24:54.564Z,100566.25
2022-12-23T04:25:26.033Z,100568.59
2022-12-23T04:25:57.441Z,100572.88
2022-12-23T04:26:28.800Z,100565.09
2022-12-23T04:27:00.320Z,100568.59
2022-12-23T04:27:31.816Z,100576.75
2022-12-23T04:28:03.266Z,100574.03
2022-12-23T04:28:34.704Z,100574.81
2022-12-23T04:29:06.049Z,100577.53
2022-12-23T04:29:38.441Z,100578.31
2022-12-23T04:30:11.964Z,100576.41
2022-12-23T04:30:43.494Z,100574.03
2022-12-23T04:31:14.932Z,100579.09
2022-12-23T04:31:46.415Z,100574.81
2022-12-23T04:32:17.774Z,100580.25
2022-12-23T04:32:49.113Z,100575.59
2022-12-23T04:33:20.557Z,100579.91
2022-12-23T04:33:51.919Z,100569.38
2022-12-23T04:34:23.293Z,100569.38
2022-12-23T04:34:54.715Z,100577.19
2022-12-23T04:35:26.090Z,100573.69
2022-12-23T04:35:59.923Z,100572.88
2022-12-23T04:36:31.377Z,100574.81
2022-12-23T04:37:02.946Z,100570.19
2022-12-23T04:37:34.321Z,100574.81
2022-12-23T04:38:05.909Z,100573.25
2022-12-23T04:38:37.398Z,100567.03
2022-12-23T04:39:09.501Z,100576.41
2022-12-23T04:39:40.899Z,100571.31
2022-12-23T04:40:12.564Z,100567.81
2022-12-23T04:40:47.343Z,100565.53
2022-12-23T04:41:18.693Z,100568.25
2022-12-23T04:41:50.178Z,100560.81
2022-12-23T04:42:21.523Z,100563.97
2022-12-23T04:42:52.879Z,100563.19
2022-12-23T04:43:24.322Z,100564.38
2022-12-23T04:43:55.705Z,100566.31
2022-12-23T04:44:27.107Z,100566.31
2022-12-23T04:44:58.723Z,100560.09
2022-12-23T04:45:30.086Z,100568.25
2022-12-23T04:46:01.639Z,100563.59
2022-12-23T04:46:33.131Z,100560.88
2022-12-23T04:47:04.643Z,100566.31
2022-12-23T04:47:36.162Z,100562.03
2022-12-23T04:48:07.582Z,100565.53
2022-12-23T04:48:38.929Z,100572.09
2022-12-23T04:49:10.339Z,100563.97
2022-12-23T04:49:41.868Z,100566.31
2022-12-23T04:50:15.474Z,100569.03
2022-12-23T04:50:46.877Z,100558.53
2022-12-23T04:51:18.248Z,100560.88
2022-12-23T04:51:49.665Z,100560.88
2022-12-23T04:52:21.159Z,100557.75
2022-12-23T04:52:52.490Z,100554.66
2022-12-23T04:53:23.842Z,100553.09
2022-12-23T04:53:55.333Z,100560.09
2022-12-23T04:54:26.776Z,100557.75
2022-12-23T04:54:58.170Z,100552.72
2022-12-23T04:55:29.537Z,100555.44
2022-12-23T04:56:00.912Z,100551.94
2022-12-23T04:56:32.307Z,100557.00
2022-12-23T04:57:03.774Z,100549.22
2022-12-23T04:57:35.177Z,100556.22
2022-12-23T04:58:06.583Z,100557.78
2022-12-23T04:58:56.582Z,100548.06
2022-12-23T04:59:27.999Z,100549.22
2022-12-23T04:59:59.438Z,100547.28
2022-12-23T05:00:37.131Z,100550.00
2022-12-23T05:01:12.195Z,100550.78
2022-12-23T05:01:43.832Z,100548.84
2022-12-23T05:02:15.596Z,100553.50
2022-12-23T05:03:06.200Z,100552.34
2022-12-23T05:03:38.999Z,100548.84
2022-12-23T05:04:10.820Z,100562.44
2022-12-23T05:04:42.219Z,100562.44
2022-12-23T05:05:13.640Z,100551.94
2022-12-23T05:05:45.052Z,100555.44
2022-12-23T05:06:16.459Z,100558.94
2022-12-23T05:06:47.808Z,100550.78
2022-12-23T05:07:19.152Z,100551.94
2022-12-23T05:07:51.619Z,100558.94
2022-12-23T05:08:22.992Z,100561.66
2022-12-23T05:08:54.388Z,100558.53
2022-12-23T05:09:25.846Z,100557.38
2022-12-23T05:10:01.553Z,100552.72
2022-12-23T05:10:32.949Z,100556.22
2022-12-23T05:11:04.481Z,100559.72
2022-12-23T05:11:41.879Z,100556.22
2022-12-23T05:12:13.814Z,100555.44
2022-12-23T05:12:45.225Z,100551.94
2022-12-23T05:13:16.714Z,100554.66
2022-12-23T05:13:48.096Z,100550.78
2022-12-23T05:14:19.537Z,100553.88
2022-12-23T05:14:50.941Z,100552.72
2022-12-23T05:15:22.297Z,100556.22
2022-12-23T05:15:54.960Z,100556.22
2022-12-23T05:16:26.508Z,100554.66
2022-12-23T05:17:03.651Z,100558.16
2022-12-23T05:17:38.392Z,100560.88
2022-12-23T05:18:09.709Z,100554.66
2022-12-23T05:18:41.113Z,100562.44
2022-12-23T05:19:12.499Z,100563.22
2022-12-23T05:19:43.804Z,100560.09
2022-12-23T05:20:15.318Z,100553.50
2022-12-23T05:20:47.147Z,100555.84
2022-12-23T05:21:18.760Z,100555.44
2022-12-23T05:21:50.093Z,100557.38
2022-12-23T05:22:21.403Z,100553.09
2022-12-23T05:22:52.849Z,100560.09
2022-12-23T05:23:24.308Z,100572.88
2022-12-23T05:23:56.177Z,100563.97
2022-12-23T05:24:27.542Z,100567.47
2022-12-23T05:24:59.089Z,100570.97
2022-12-23T05:25:30.473Z,100570.97
2022-12-23T05:26:01.920Z,100571.75
2022-12-23T05:26:33.368Z,100571.38
2022-12-23T05:27:04.826Z,100571.75
2022-12-23T05:27:36.702Z,100574.88
2022-12-23T05:28:09.517Z,100579.53
2022-12-23T05:28:40.945Z,100575.25
2022-12-23T05:29:12.463Z,100577.97
2022-12-23T05:29:43.993Z,100579.53
2022-12-23T05:30:15.638Z,100577.19
2022-12-23T05:30:47.000Z,100574.09
2022-12-23T05:31:18.485Z,100578.75
2022-12-23T05:31:49.991Z,100576.81
2022-12-23T05:32:21.445Z,100583.03
2022-12-23T05:32:54.762Z,100578.38
2022-12-23T05:33:26.873Z,100580.31
2022-12-23T05:34:04.049Z,100586.53
2022-12-23T05:34:37.172Z,100583.81
2022-12-23T05:35:08.953Z,100584.19
2022-12-23T05:35:40.370Z,100581.88
2022-12-23T05:36:12.355Z,100587.31
2022-12-23T05:36:43.693Z,100584.97
2022-12-23T05:37:15.101Z,100583.81
2022-12-23T05:37:46.615Z,100579.91
2022-12-23T05:38:19.047Z,100589.25
2022-12-23T05:38:50.405Z,100583.03
2022-12-23T05:39:21.972Z,100591.19
2022-12-23T05:39:53.345Z,100584.19
2022-12-23T05:40:27.569Z,100586.47
2022-12-23T05:41:03.062Z,100590.41
2022-12-23T05:41:34.394Z,100591.53
2022-12-23T05:42:06.006Z,100591.53
2022-12-23T05:42:37.380Z,100590.75
2022-12-23T05:43:08.776Z,100590.75
2022-12-23T05:43:40.117Z,100593.47
2022-12-23T05:44:11.441Z,100589.91
2022-12-23T05:44:42.751Z,100601.63
2022-12-23T05:45:14.185Z,100599.28
2022-12-23T05:45:46.502Z,100609.00
2022-12-23T05:46:24.361Z,100604.34
2022-12-23T05:46:57.899Z,100602.78
2022-12-23T05:47:47.654Z,100600.84
2022-12-23T05:48:19.028Z,100599.28
2022-12-23T05:48:50.415Z,100595.00
2022-12-23T05:49:22.529Z,100598.50
2022-12-23T05:49:53.843Z,100596.56
2022-12-23T05:50:25.397Z,100596.13
2022-12-23T05:50:56.842Z,100607.44
2022-12-23T05:51:28.294Z,100604.72
2022-12-23T05:51:59.674Z,100598.84
2022-12-23T05:52:31.080Z,100601.56
2022-12-23T05:53:03.687Z,100597.72
2022-12-23T05:53:35.077Z,100601.22
2022-12-23T05:54:06.652Z,100604.28
2022-12-23T05:54:43.119Z,100590.34
2022-12-23T05:55:14.536Z,100595.78
2022-12-23T05:55:46.526Z,100606.63
2022-12-23T05:56:17.916Z,100604.28
2022-12-23T05:56:49.344Z,100597.72
2022-12-23T05:57:21.339Z,100604.72
2022-12-23T05:57:53.708Z,100601.22
2022-12-23T05:58:25.261Z,100604.72
2022-12-23T05:58:56.671Z,100596.56
2022-12-23T05:59:31.375Z,100599.28
2022-12-23T06:00:04.372Z,100596.56
2022-12-23T06:00:36.024Z,100595.00
2022-12-23T06:01:07.914Z,100603.13
2022-12-23T06:01:39.384Z,100598.50
2022-12-23T06:02:11.175Z,100595.00
2022-12-23T06:02:44.367Z,100595.00
2022-12-23T06:03:18.816Z,100601.56
2022-12-23T06:03:50.498Z,100604.28
2022-12-23T06:04:22.018Z,100595.00
2022-12-23T06:04:53.380Z,100596.56
2022-12-23T06:05:24.737Z,100602.00
2022-12-23T06:05:56.236Z,100595.78
2022-12-23T06:06:27.660Z,100596.19
2022-12-23T06:06:59.105Z,100596.63
2022-12-23T06:07:30.439Z,100595.81
2022-12-23T06:08:55.767Z,100593.91
2022-12-23T06:09:30.642Z,100591.97
2022-12-23T06:10:02.006Z,100593.13
2022-12-23T06:10:33.437Z,100590.41
2022-12-23T06:11:05.593Z,100589.25
2022-12-23T06:11:36.970Z,100595.03
2022-12-23T06:12:08.325Z,100591.97
2022-12-23T06:12:39.697Z,100586.91
2022-12-23T06:13:11.104Z,100584.19
2022-12-23T06:13:42.487Z,100588.03
2022-12-23T06:14:14.003Z,100586.91
2022-12-23T06:14:45.382Z,100594.25
2022-12-23T06:15:16.905Z,100592.31
2022-12-23T06:15:48.315Z,100588.81
2022-12-23T06:16:19.772Z,100595.81
2022-12-23T06:16:51.516Z,100598.91
2022-12-23T06:17:23.060Z,100598.91
2022-12-23T06:17:55.763Z,100596.56
2022-12-23T06:18:27.237Z,100596.56
2022-12-23T06:18:58.593Z,100595.00
2022-12-23T06:19:29.956Z,100588.00
2022-12-23T06:20:01.349Z,100589.91
2022-12-23T06:20:32.796Z,100588.41
2022-12-23T06:21:04.418Z,100584.91
2022-12-23T06:21:54.184Z,100582.97
2022-12-23T06:22:25.657Z,100581.41
2022-12-23T06:22:57.065Z,100579.47
2022-12-23T06:23:28.439Z,100573.63
2022-12-23T06:23:59.980Z,100579.84
2022-12-23T06:24:31.385Z,100576.34
2022-12-23T06:25:02.871Z,100574.78
2022-12-23T06:25:34.254Z,100570.13
2022-12-23T06:26:05.693Z,100570.91
2022-12-23T06:26:37.089Z,100570.91
2022-12-23T06:27:08.490Z,100571.69
2022-12-23T06:27:39.873Z,100574.41
2022-12-23T06:28:11.234Z,100566.25
2022-12-23T06:28:42.573Z,100568.19
2022-12-23T06:29:13.977Z,100570.13
2022-12-23T06:29:45.513Z,100570.91
2022-12-23T06:30:16.914Z,100576.34
2022-12-23T06:30:53.215Z,100569.34
2022-12-23T06:31:24.672Z,100570.91
2022-12-23T06:31:56.118Z,100577.13
2022-12-23T06:32:31.490Z,100568.97
2022-12-23T06:33:05.827Z,100575.56
2022-12-23T06:33:37.278Z,100571.69
2022-12-23T06:34:57.353Z,100581.00
2022-12-23T06:35:28.792Z,100575.91
2022-12-23T06:36:00.186Z,100576.69
2022-12-23T06:36:31.618Z,100577.81
2022-12-23T06:37:03.048Z,100576.69
2022-12-23T06:37:35.086Z,100584.84
2022-12-23T06:38:11.805Z,100575.56
2022-12-23T06:38:43.714Z,100578.28
2022-12-23T06:39:15.096Z,100573.53
2022-12-23T06:39:46.533Z,100579.41
2022-12-23T06:40:18.030Z,100576.69
2022-12-23T06:40:49.413Z,100578.97
2022-12-23T06:41:20.785Z,100581.69
2022-12-23T06:41:52.214Z,100574.31
2022-12-23T06:42:23.600Z,100583.25
2022-12-23T06:42:54.941Z,100582.47
2022-12-23T06:43:26.322Z,100587.91
2022-12-23T06:43:57.713Z,100580.13
2022-12-23T06:44:29.074Z,100579.75
2022-12-23T06:45:00.581Z,100583.25
2022-12-23T06:45:32.196Z,100576.63
2022-12-23T06:46:03.733Z,100587.91
2022-12-23T06:46:35.225Z,100585.97
2022-12-23T06:47:06.592Z,100580.13
2022-12-23T06:47:38.173Z,100576.97
2022-12-23T06:48:09.616Z,100582.84
2022-12-23T06:48:41.111Z,100582.41
2022-12-23T06:49:13.622Z,100602.63
2022-12-23T06:49:45.412Z,100594.50
2022-12-23T06:50:16.904Z,100599.91
2022-12-23T06:50:48.240Z,100600.72
2022-12-23T06:51:19.692Z,100593.69
2022-12-23T06:51:51.066Z,100607.28
2022-12-23T06:52:22.928Z,100606.13